Time;durP1;ratioP1;P1;durP2;ratioP2;P2;SDS_P1;SDS_P2;PMS_P1;PMS_P2;Temp;Humidity;BMP_temperature;BMP_pressure;BME280_temperature;BME280_humidity;BME280_pressure;Samples;Min_cycle;Max_cycle;Signal;HPM_P1;HPM_P2
2021/07/02 00:02:05;;;;;;;19.58;10.98;;;16.10;99.90;;;;;;5092732;28;20462;-88
2021/07/02 00:04:33;;;;;;;14.98;10.07;;;16.20;99.90;;;;;;5041250;28;20089;-88
2021/07/02 00:06:59;;;;;;;17.58;10.32;;;16.20;99.90;;;;;;5076687;28;20028;-87
2021/07/02 00:09:24;;;;;;;16.50;10.27;;;16.20;99.90;;;;;;5074252;28;20392;-87
2021/07/02 00:11:50;;;;;;;13.80;8.95;;;16.10;99.90;;;;;;5057463;28;20161;-88
2021/07/02 00:14:16;;;;;;;14.43;10.20;;;16.20;99.90;;;;;;5074939;28;20462;-88
2021/07/02 00:16:41;;;;;;;19.92;10.23;;;16.10;99.90;;;;;;5063242;28;20171;-87
2021/07/02 00:19:07;;;;;;;20.15;10.27;;;16.20;99.90;;;;;;5061355;28;20466;-88
2021/07/02 00:21:33;;;;;;;18.25;11.00;;;16.10;99.90;;;;;;5074846;28;20111;-88
2021/07/02 00:23:59;;;;;;;16.42;10.30;;;16.10;99.90;;;;;;5073801;28;20450;-87
2021/07/02 00:26:24;;;;;;;18.65;10.65;;;16.10;99.90;;;;;;5069554;28;20028;-88
2021/07/02 00:28:50;;;;;;;18.67;10.50;;;16.10;99.90;;;;;;5074318;28;20032;-88
2021/07/02 00:31:16;;;;;;;16.65;11.35;;;16.10;99.90;;;;;;5070723;28;20028;-88
2021/07/02 00:33:41;;;;;;;16.60;10.25;;;16.10;99.90;;;;;;5090936;28;20020;-88
2021/07/02 00:36:07;;;;;;;18.15;10.13;;;16.00;99.90;;;;;;5071424;28;20540;-88
2021/07/02 00:38:33;;;;;;;17.83;10.57;;;16.00;99.90;;;;;;5054092;28;20176;-87
2021/07/02 00:40:58;;;;;;;17.35;11.43;;;16.00;99.90;;;;;;5054885;28;20036;-88
2021/07/02 00:43:24;;;;;;;21.95;11.05;;;16.00;99.90;;;;;;5057031;28;20047;-88
2021/07/02 00:45:49;;;;;;;19.45;11.10;;;16.00;99.90;;;;;;5073934;28;20043;-88
2021/07/02 00:48:15;;;;;;;19.45;11.13;;;16.00;99.90;;;;;;5057011;28;20021;-88
2021/07/02 00:50:43;;;;;;;18.25;10.90;;;16.00;99.90;;;;;;5057249;28;20389;-87
2021/07/02 00:53:09;;;;;;;15.98;10.75;;;15.90;99.90;;;;;;5073930;28;20098;-88
2021/07/02 00:55:35;;;;;;;15.63;10.68;;;15.90;99.90;;;;;;5047290;28;20092;-88
2021/07/02 00:58:00;;;;;;;17.35;10.93;;;15.90;99.90;;;;;;5056011;28;20474;-88
2021/07/02 01:00:26;;;;;;;17.67;10.65;;;15.90;99.90;;;;;;5053865;28;20098;-88
2021/07/02 01:02:52;;;;;;;17.40;10.65;;;15.90;99.90;;;;;;5034329;28;20474;-89
2021/07/02 01:05:18;;;;;;;16.10;10.75;;;15.90;99.90;;;;;;5053758;28;20074;-88
2021/07/02 01:07:44;;;;;;;19.00;11.13;;;15.90;99.90;;;;;;5085253;28;20012;-88
2021/07/02 01:10:14;;;;;;;15.60;10.60;;;15.90;99.90;;;;;;5057378;28;20029;-88
2021/07/02 01:12:40;;;;;;;17.85;10.95;;;15.90;99.90;;;;;;5041046;28;20111;-88
2021/07/02 01:15:19;;;;;;;20.65;11.80;;;15.90;99.90;;;;;;5073335;28;20048;-88
2021/07/02 01:17:44;;;;;;;19.38;11.70;;;15.80;99.90;;;;;;5095619;28;20020;-88
2021/07/02 01:20:10;;;;;;;23.55;12.50;;;15.80;99.90;;;;;;5043822;28;20160;-88
2021/07/02 01:22:39;;;;;;;18.35;10.98;;;15.90;99.90;;;;;;5057218;28;20390;-89
2021/07/02 01:25:05;;;;;;;15.70;10.55;;;15.80;99.90;;;;;;5088171;28;20032;-88
2021/07/02 01:27:32;;;;;;;19.13;11.98;;;15.90;99.90;;;;;;5095299;28;20028;-89
2021/07/02 01:29:58;;;;;;;17.13;10.48;;;15.90;99.90;;;;;;5077178;28;20016;-88
2021/07/02 01:32:23;;;;;;;15.32;10.70;;;15.80;99.90;;;;;;5076889;28;20028;-88
2021/07/02 01:34:49;;;;;;;21.80;12.48;;;15.90;99.90;;;;;;5075979;28;20039;-88
2021/07/02 01:37:15;;;;;;;20.27;11.30;;;15.80;99.90;;;;;;5075214;28;20043;-87
2021/07/02 01:39:42;;;;;;;19.05;11.88;;;15.80;99.90;;;;;;5064543;28;20054;-88
2021/07/02 01:42:11;;;;;;;18.30;11.77;;;15.80;99.90;;;;;;5076919;28;20035;-88
2021/07/02 01:44:38;;;;;;;17.75;11.02;;;15.80;99.90;;;;;;5080926;28;20114;-88
2021/07/02 01:47:05;;;;;;;20.35;12.23;;;15.70;99.90;;;;;;5076943;28;20109;-88
2021/07/02 01:49:30;;;;;;;19.65;11.88;;;15.70;99.90;;;;;;5076754;28;20107;-89
2021/07/02 01:51:56;;;;;;;18.70;11.20;;;15.70;99.90;;;;;;5076896;28;20107;-88
2021/07/02 01:54:23;;;;;;;21.20;11.70;;;15.70;99.90;;;;;;5090907;28;20028;-88
2021/07/02 01:56:49;;;;;;;15.07;10.88;;;15.70;99.90;;;;;;5065343;28;20730;-88
2021/07/02 01:59:16;;;;;;;17.25;10.77;;;15.60;99.90;;;;;;5057166;28;20028;-88
2021/07/02 02:01:42;;;;;;;20.23;10.90;;;15.70;99.90;;;;;;5063336;28;20016;-88
2021/07/02 02:04:08;;;;;;;17.63;12.18;;;15.70;99.90;;;;;;5059746;28;20039;-88
2021/07/02 02:06:34;;;;;;;21.85;12.13;;;15.70;99.90;;;;;;5090443;28;20016;-87
2021/07/02 02:09:00;;;;;;;18.30;10.13;;;15.60;99.90;;;;;;5065504;28;20039;-88
2021/07/02 02:11:25;;;;;;;16.80;9.82;;;15.60;99.90;;;;;;5042499;28;20032;-88
2021/07/02 02:13:51;;;;;;;20.38;11.18;;;15.60;99.90;;;;;;5076178;28;20035;-87
2021/07/02 02:16:16;;;;;;;17.73;11.02;;;15.60;99.90;;;;;;5059419;28;20111;-87
2021/07/02 02:18:42;;;;;;;16.25;11.35;;;15.60;99.90;;;;;;5038309;28;20085;-88
2021/07/02 02:21:08;;;;;;;18.60;10.55;;;15.60;99.90;;;;;;5056189;28;20067;-88
2021/07/02 02:23:33;;;;;;;21.40;11.68;;;15.60;99.90;;;;;;5058312;28;20036;-88
2021/07/02 02:25:59;;;;;;;17.27;10.90;;;15.50;99.90;;;;;;5042546;28;20528;-88
2021/07/02 02:28:25;;;;;;;20.15;11.57;;;15.50;99.90;;;;;;5075933;28;20066;-87
2021/07/02 02:30:50;;;;;;;18.88;11.20;;;15.50;99.90;;;;;;5076069;28;20032;-88
2021/07/02 02:33:16;;;;;;;19.33;10.90;;;15.50;99.90;;;;;;5070413;28;20017;-88
2021/07/02 02:35:42;;;;;;;16.77;10.88;;;15.50;99.90;;;;;;5058839;28;20073;-89
2021/07/02 02:38:08;;;;;;;15.32;10.60;;;15.50;99.90;;;;;;5075777;28;20028;-88
2021/07/02 02:40:33;;;;;;;18.58;11.05;;;15.50;99.90;;;;;;5057951;28;20542;-88
2021/07/02 02:42:59;;;;;;;14.57;10.40;;;15.50;99.90;;;;;;5078759;28;20121;-88
2021/07/02 02:45:25;;;;;;;16.40;10.95;;;15.50;99.90;;;;;;5093379;28;20040;-88
2021/07/02 02:47:50;;;;;;;19.08;10.80;;;15.50;99.90;;;;;;5043498;28;20024;-88
2021/07/02 02:50:16;;;;;;;16.15;11.13;;;15.50;99.90;;;;;;5075371;28;20024;-88
2021/07/02 02:52:42;;;;;;;17.50;11.73;;;15.50;99.90;;;;;;5089243;28;20036;-89
2021/07/02 02:55:08;;;;;;;19.30;10.95;;;15.50;99.90;;;;;;5061300;28;20112;-88
2021/07/02 02:57:34;;;;;;;18.50;11.48;;;15.50;99.90;;;;;;5039293;28;20033;-88
2021/07/02 02:59:59;;;;;;;19.35;11.40;;;15.50;99.90;;;;;;5058506;28;20031;-88
2021/07/02 03:02:25;;;;;;;18.48;11.70;;;15.50;99.90;;;;;;5038676;28;20052;-88
2021/07/02 03:04:52;;;;;;;19.42;11.52;;;15.40;99.90;;;;;;5035840;28;20054;-88
2021/07/02 03:07:18;;;;;;;19.85;10.88;;;15.40;99.90;;;;;;5056111;28;20036;-88
2021/07/02 03:09:44;;;;;;;15.90;10.68;;;15.40;99.90;;;;;;5055562;28;20061;-88
2021/07/02 03:12:10;;;;;;;14.27;10.70;;;15.40;99.90;;;;;;5055396;28;20020;-88
2021/07/02 03:14:36;;;;;;;18.80;11.85;;;15.40;99.90;;;;;;5055952;28;20470;-88
2021/07/02 03:17:01;;;;;;;20.50;12.63;;;15.40;99.90;;;;;;5055127;28;20035;-88
2021/07/02 03:19:27;;;;;;;18.73;12.80;;;15.40;99.90;;;;;;5038285;28;20466;-88
2021/07/02 03:21:53;;;;;;;17.63;11.80;;;15.30;99.90;;;;;;5074832;28;20024;-88
2021/07/02 03:24:19;;;;;;;19.30;12.40;;;15.30;99.90;;;;;;5074865;28;20173;-88
2021/07/02 03:26:45;;;;;;;17.42;11.85;;;15.30;99.90;;;;;;5071908;28;20059;-88
2021/07/02 03:29:11;;;;;;;18.13;11.48;;;15.30;99.90;;;;;;5074669;28;20052;-88
2021/07/02 03:31:37;;;;;;;16.92;11.02;;;15.30;99.90;;;;;;5092698;28;20516;-87
2021/07/02 03:34:03;;;;;;;18.58;12.10;;;15.30;99.90;;;;;;5074312;28;20465;-88
2021/07/02 03:36:29;;;;;;;17.60;11.90;;;15.20;99.90;;;;;;5048851;28;20086;-88
2021/07/02 03:38:54;;;;;;;17.73;11.65;;;15.20;99.90;;;;;;5053284;28;20389;-87
2021/07/02 03:41:20;;;;;;;17.80;12.73;;;15.20;99.90;;;;;;5075103;28;20040;-88
2021/07/02 03:43:46;;;;;;;19.23;12.27;;;15.20;99.90;;;;;;5074731;22;20489;-89
2021/07/02 03:46:11;;;;;;;17.65;12.27;;;15.20;99.90;;;;;;5051955;28;20029;-89
2021/07/02 03:48:37;;;;;;;22.83;13.27;;;15.20;99.90;;;;;;5022665;28;20032;-89
2021/07/02 03:51:03;;;;;;;16.98;11.40;;;15.20;99.90;;;;;;5049810;28;20021;-89
2021/07/02 03:53:29;;;;;;;18.95;12.55;;;15.20;99.90;;;;;;5034315;28;20028;-88
2021/07/02 03:55:55;;;;;;;20.38;13.27;;;15.20;99.90;;;;;;5025324;28;20021;-89
2021/07/02 03:58:20;;;;;;;19.63;13.18;;;15.10;99.90;;;;;;5047855;28;20095;-89
2021/07/02 04:00:46;;;;;;;19.70;13.18;;;15.10;99.90;;;;;;5032046;28;20420;-89
2021/07/02 04:03:14;;;;;;;20.80;14.50;;;15.10;99.90;;;;;;5039004;28;20485;-89
2021/07/02 04:05:43;;;;;;;20.35;14.15;;;15.10;99.90;;;;;;5023169;28;20044;-89
2021/07/02 04:08:09;;;;;;;18.92;12.77;;;15.10;99.90;;;;;;5053807;28;20541;-89
2021/07/02 04:10:35;;;;;;;22.25;12.70;;;15.10;99.90;;;;;;5048794;28;20027;-89
2021/07/02 04:13:00;;;;;;;22.25;14.32;;;15.10;99.90;;;;;;5024590;28;20474;-89
2021/07/02 04:15:26;;;;;;;22.98;14.38;;;15.10;99.90;;;;;;5055578;28;20036;-89
2021/07/02 04:17:51;;;;;;;18.23;12.95;;;15.10;99.90;;;;;;5049516;28;20028;-89
2021/07/02 04:20:18;;;;;;;27.38;14.70;;;15.10;99.90;;;;;;5035550;28;20047;-89
2021/07/02 04:22:44;;;;;;;22.90;15.48;;;15.10;99.90;;;;;;5063984;28;20165;-89
2021/07/02 04:25:11;;;;;;;19.95;13.88;;;15.10;99.90;;;;;;5022298;28;20420;-88
2021/07/02 04:27:41;;;;;;;20.27;13.40;;;15.10;99.90;;;;;;5048858;28;20050;-89
2021/07/02 04:30:08;;;;;;;21.83;14.25;;;15.10;99.90;;;;;;5060949;28;20020;-89
2021/07/02 04:32:36;;;;;;;23.13;15.02;;;15.10;99.90;;;;;;5065923;28;20021;-88
2021/07/02 04:35:03;;;;;;;24.70;15.02;;;15.10;99.90;;;;;;5022846;28;20086;-89
2021/07/02 04:37:29;;;;;;;22.60;14.40;;;15.10;99.90;;;;;;5069642;28;20100;-88
2021/07/02 04:39:54;;;;;;;24.42;14.73;;;15.10;99.90;;;;;;5044538;28;20545;-89
2021/07/02 04:42:20;;;;;;;25.55;15.23;;;15.10;99.90;;;;;;5057366;28;20517;-89
2021/07/02 04:44:46;;;;;;;23.85;15.05;;;15.10;99.90;;;;;;5058673;28;20049;-89
2021/07/02 04:47:11;;;;;;;21.05;15.15;;;15.10;99.90;;;;;;5026122;28;20025;-89
2021/07/02 04:49:37;;;;;;;25.25;15.27;;;15.10;99.90;;;;;;5053146;28;20119;-88
2021/07/02 04:52:03;;;;;;;21.80;15.32;;;15.10;99.90;;;;;;5041906;28;20029;-89
2021/07/02 04:54:29;;;;;;;24.92;15.07;;;15.10;99.90;;;;;;5039560;28;20029;-88
2021/07/02 04:56:54;;;;;;;23.10;16.30;;;15.00;99.90;;;;;;5025697;28;20123;-88
2021/07/02 04:59:26;;;;;;;21.83;14.85;;;15.00;99.90;;;;;;5037803;28;20070;-88
2021/07/02 05:01:53;;;;;;;24.83;16.40;;;15.00;99.90;;;;;;5047097;28;20462;-88
2021/07/02 05:04:18;;;;;;;26.15;15.82;;;15.00;99.90;;;;;;5064018;28;20036;-88
2021/07/02 05:06:44;;;;;;;24.77;16.08;;;15.00;99.90;;;;;;5042330;28;20036;-88
2021/07/02 05:09:09;;;;;;;27.10;16.42;;;15.00;99.90;;;;;;5059279;28;20363;-90
2021/07/02 05:11:35;;;;;;;24.73;15.95;;;15.00;99.90;;;;;;5064312;28;20481;-90
2021/07/02 05:14:04;;;;;;;23.77;15.63;;;15.00;99.90;;;;;;5044767;28;20069;-89
2021/07/02 05:16:31;;;;;;;23.52;15.85;;;15.00;99.90;;;;;;5049082;28;20033;-88
2021/07/02 05:18:56;;;;;;;23.88;15.32;;;15.00;99.90;;;;;;5053390;28;20471;-88
2021/07/02 05:21:22;;;;;;;24.05;15.65;;;15.00;99.90;;;;;;5042465;28;20038;-89
2021/07/02 05:23:48;;;;;;;24.63;15.50;;;15.00;99.90;;;;;;5061905;28;20102;-88
2021/07/02 05:26:13;;;;;;;24.35;15.68;;;15.00;99.90;;;;;;5049289;28;20068;-89
2021/07/02 05:28:40;;;;;;;23.98;15.95;;;15.10;99.90;;;;;;5021816;28;20025;-88
2021/07/02 05:31:06;;;;;;;22.20;15.13;;;15.00;99.90;;;;;;5070030;28;20141;-88
2021/07/02 05:33:32;;;;;;;22.20;15.13;;;15.10;99.90;;;;;;5063631;28;20026;-88
2021/07/02 05:35:58;;;;;;;26.45;17.00;;;15.10;99.90;;;;;;5041441;28;20024;-89
2021/07/02 05:38:23;;;;;;;26.17;16.42;;;15.00;99.90;;;;;;5039320;28;20056;-88
2021/07/02 05:40:54;;;;;;;22.65;15.52;;;15.00;99.90;;;;;;5060991;28;20025;-88
2021/07/02 05:43:23;;;;;;;;;;;15.10;99.90;;;;;;5040133;28;20114;-88
2021/07/02 05:45:49;;;;;;;30.30;18.05;;;15.10;99.90;;;;;;5041058;28;19913;-89
2021/07/02 05:48:17;;;;;;;27.00;17.30;;;15.10;99.90;;;;;;5067762;28;20529;-90
2021/07/02 05:50:44;;;;;;;29.95;17.60;;;15.10;99.90;;;;;;5070744;28;20021;-89
2021/07/02 05:53:10;;;;;;;29.88;17.60;;;15.10;99.90;;;;;;5068063;28;20050;-89
2021/07/02 05:55:36;;;;;;;31.95;17.95;;;15.20;99.90;;;;;;5047153;28;20116;-88
2021/07/02 05:58:01;;;;;;;27.25;16.50;;;15.20;99.90;;;;;;5053724;28;20025;-89
2021/07/02 06:00:27;;;;;;;26.63;15.88;;;15.20;99.90;;;;;;5043910;28;20434;-90
2021/07/02 06:03:12;;;;;;;29.45;17.02;;;15.20;99.90;;;;;;5037369;28;20505;-89
2021/07/02 06:05:37;;;;;;;27.98;16.77;;;15.30;99.90;;;;;;5048391;28;20112;-87
2021/07/02 06:08:03;;;;;;;26.05;15.73;;;15.30;99.90;;;;;;5041133;28;20116;-88
2021/07/02 06:10:30;;;;;;;29.35;16.98;;;15.40;99.90;;;;;;5056873;28;20094;-88
2021/07/02 06:12:57;;;;;;;26.20;16.70;;;15.40;99.90;;;;;;5035279;28;20025;-88
2021/07/02 06:15:23;;;;;;;29.55;18.15;;;15.50;99.90;;;;;;5055471;28;20153;-90
2021/07/02 06:17:50;;;;;;;29.20;18.00;;;15.50;99.90;;;;;;5066414;28;20031;-88
2021/07/02 06:20:17;;;;;;;28.20;16.05;;;15.50;99.90;;;;;;5034080;28;20027;-87
2021/07/02 06:22:44;;;;;;;28.73;16.20;;;15.60;99.90;;;;;;5060083;28;20373;-93
2021/07/02 06:25:11;;;;;;;28.98;17.35;;;15.60;99.90;;;;;;5036427;28;20086;-87
2021/07/02 06:27:37;;;;;;;24.15;15.45;;;15.70;99.90;;;;;;5071620;28;20025;-88
2021/07/02 06:30:04;;;;;;;26.90;15.13;;;15.80;99.90;;;;;;5029682;28;20112;-87
2021/07/02 06:32:30;;;;;;;25.33;15.38;;;15.80;99.90;;;;;;5047744;28;20032;-88
2021/07/02 06:34:56;;;;;;;23.48;15.57;;;15.90;99.90;;;;;;5051019;28;20020;-88
2021/07/02 06:37:21;;;;;;;25.83;15.63;;;15.90;99.90;;;;;;5039527;28;20501;-87
2021/07/02 06:39:47;;;;;;;26.75;15.63;;;16.00;99.90;;;;;;5038190;28;20047;-87
2021/07/02 06:42:13;;;;;;;26.50;16.58;;;16.10;99.90;;;;;;5052597;28;20358;-88
2021/07/02 06:44:38;;;;;;;24.35;15.27;;;16.20;99.90;;;;;;5040370;28;20070;-87
2021/07/02 06:47:05;;;;;;;23.75;15.40;;;16.20;99.90;;;;;;5048869;28;20035;-88
2021/07/02 06:49:30;;;;;;;22.73;14.88;;;16.30;99.90;;;;;;5047059;28;20060;-88
2021/07/02 06:51:56;;;;;;;19.50;13.05;;;16.30;99.90;;;;;;5022757;28;20938;-87
2021/07/02 06:54:22;;;;;;;22.45;13.70;;;16.40;99.90;;;;;;5047200;28;20063;-87
2021/07/02 06:57:00;;;;;;;20.90;13.35;;;16.50;99.50;;;;;;5045592;28;20033;-90
2021/07/02 06:59:27;;;;;;;19.58;12.52;;;16.50;99.90;;;;;;5027611;28;20025;-91
2021/07/02 07:01:54;;;;;;;18.42;12.57;;;16.70;99.90;;;;;;5053619;28;20098;-91
2021/07/02 07:04:20;;;;;;;14.55;11.23;;;16.70;99.90;;;;;;5054291;28;20473;-91
2021/07/02 07:06:46;;;;;;;22.42;13.45;;;16.80;99.90;;;;;;5034704;28;20031;-90
2021/07/02 07:09:12;;;;;;;20.10;13.10;;;16.80;99.50;;;;;;5050452;28;20034;-91
2021/07/02 07:11:37;;;;;;;16.85;12.05;;;16.90;99.40;;;;;;5052682;28;20105;-90
2021/07/02 07:14:03;;;;;;;18.08;12.50;;;17.00;99.90;;;;;;5036033;28;20034;-91
2021/07/02 07:17:15;;;;;;;19.00;12.05;;;17.00;99.90;;;;;;5012652;28;20036;-91
2021/07/02 07:19:40;;;;;;;20.23;13.82;;;17.10;99.90;;;;;;5085149;28;20042;-91
2021/07/02 07:22:47;;;;;;;17.48;12.60;;;17.20;98.90;;;;;;5042539;28;20028;-91
2021/07/02 07:25:13;;;;;;;18.30;12.63;;;17.20;98.80;;;;;;5050124;28;20036;-91
2021/07/02 07:27:41;;;;;;;19.75;12.07;;;17.30;99.10;;;;;;5038376;28;20036;-91
2021/07/02 07:30:07;;;;;;;19.70;12.57;;;17.40;99.80;;;;;;5055726;28;20127;-91
2021/07/02 07:32:34;;;;;;;18.95;13.13;;;17.40;99.50;;;;;;5055745;28;20093;-92
2021/07/02 07:35:02;;;;;;;18.38;13.90;;;17.50;99.10;;;;;;5054236;28;20111;-91
2021/07/02 07:37:31;;;;;;;19.23;13.55;;;17.60;99.80;;;;;;5060252;28;20446;-90
2021/07/02 07:39:57;;;;;;;18.75;12.55;;;17.70;99.70;;;;;;5050599;28;20037;-91
2021/07/02 07:42:22;;;;;;;17.60;12.18;;;17.70;99.50;;;;;;5040035;28;20044;-90
2021/07/02 07:44:48;;;;;;;15.82;11.10;;;17.80;99.70;;;;;;5023063;28;20044;-90
2021/07/02 07:47:14;;;;;;;17.65;12.52;;;17.90;99.60;;;;;;5035837;28;20025;-91
2021/07/02 07:49:40;;;;;;;15.55;12.40;;;17.90;99.00;;;;;;5036418;28;20035;-91
2021/07/02 07:54:36;;;;;;;16.60;12.20;;;18.10;97.70;;;;;;5039419;28;20092;-90
2021/07/02 07:57:02;;;;;;;16.55;11.80;;;18.20;99.40;;;;;;5038460;28;20058;-89
2021/07/02 07:59:28;;;;;;;14.65;10.60;;;18.30;99.60;;;;;;5031704;28;20144;-90
2021/07/02 08:01:54;;;;;;;22.00;13.20;;;18.40;99.90;;;;;;5045293;28;20037;-90
2021/07/02 08:04:20;;;;;;;18.35;14.00;;;18.50;98.90;;;;;;5063104;28;20093;-90
2021/07/02 08:06:47;;;;;;;15.18;12.15;;;18.60;97.00;;;;;;5061815;28;20016;-91
2021/07/02 08:09:14;;;;;;;15.02;11.38;;;18.60;98.10;;;;;;5056153;28;20043;-92
2021/07/02 08:11:41;;;;;;;18.67;12.43;;;18.70;96.00;;;;;;5057802;28;20022;-91
2021/07/02 08:14:07;;;;;;;18.15;12.82;;;18.70;98.00;;;;;;5050402;28;20528;-91
2021/07/02 08:16:34;;;;;;;14.73;11.40;;;18.80;97.90;;;;;;5021939;28;20094;-91
2021/07/02 08:19:00;;;;;;;15.55;11.88;;;18.80;98.00;;;;;;5038294;28;20477;-88
2021/07/02 08:21:26;;;;;;;17.40;11.90;;;18.90;98.00;;;;;;5072569;28;20036;-89
2021/07/02 08:23:52;;;;;;;15.32;10.30;;;18.90;97.80;;;;;;5077533;28;20032;-88
2021/07/02 08:26:18;;;;;;;12.52;9.15;;;18.90;97.50;;;;;;5059910;28;20031;-88
2021/07/02 08:31:28;;;;;;;12.40;9.40;;;18.90;96.60;;;;;;5068205;28;20035;-88
2021/07/02 08:33:54;;;;;;;18.80;10.73;;;18.90;97.10;;;;;;5054433;28;20016;-87
2021/07/02 08:36:20;;;;;;;12.98;10.13;;;18.90;97.20;;;;;;5071657;28;20041;-88
2021/07/02 08:38:45;;;;;;;14.90;11.48;;;19.00;97.20;;;;;;5071485;28;20533;-88
2021/07/02 08:41:13;;;;;;;16.92;11.70;;;19.00;96.90;;;;;;5065226;28;20029;-89
2021/07/02 08:43:45;;;;;;;17.13;11.75;;;19.00;97.00;;;;;;5070651;28;20032;-88
2021/07/02 08:46:16;;;;;;;16.27;12.18;;;19.10;97.10;;;;;;5069131;28;20032;-88
2021/07/02 08:48:44;;;;;;;;;;;19.10;97.30;;;;;;5059080;28;20138;-88
2021/07/02 08:51:10;;;;;;;18.85;12.60;;;19.10;96.90;;;;;;5057634;28;19908;-88
2021/07/02 08:53:36;;;;;;;18.83;12.40;;;19.10;97.00;;;;;;5062197;28;20051;-88
2021/07/02 08:56:03;;;;;;;18.40;13.50;;;19.10;97.40;;;;;;5073236;28;20378;-88
2021/07/02 08:58:33;;;;;;;21.55;14.23;;;19.20;97.50;;;;;;5042145;28;20033;-88
2021/07/02 09:00:59;;;;;;;19.15;14.07;;;19.20;95.60;;;;;;5038811;28;20119;-88
2021/07/02 09:03:25;;;;;;;19.77;14.57;;;19.20;96.10;;;;;;5057226;28;20024;-89
2021/07/02 09:05:53;;;;;;;21.70;14.38;;;19.20;96.30;;;;;;5057387;28;20423;-88
2021/07/02 09:08:19;;;;;;;19.10;13.30;;;19.30;96.50;;;;;;5069695;28;20025;-89
2021/07/02 09:10:46;;;;;;;19.85;13.18;;;19.30;96.70;;;;;;5055159;28;20025;-88
2021/07/02 09:13:13;;;;;;;17.25;12.35;;;19.30;96.50;;;;;;5063858;28;20023;-88
2021/07/02 09:15:47;;;;;;;17.48;12.70;;;19.40;96.60;;;;;;5069836;28;20120;-88
2021/07/02 09:18:13;;;;;;;14.95;11.60;;;19.40;95.40;;;;;;5079968;28;20028;-88
2021/07/02 09:20:40;;;;;;;16.90;12.50;;;19.40;96.10;;;;;;5050503;28;20029;-88
2021/07/02 09:23:11;;;;;;;16.35;11.77;;;19.50;95.80;;;;;;5060144;28;20024;-88
2021/07/02 09:25:50;;;;;;;19.90;13.60;;;19.50;96.00;;;;;;5059244;28;20028;-88
2021/07/02 09:28:18;;;;;;;17.92;11.88;;;19.60;96.10;;;;;;5059283;28;20021;-88
2021/07/02 09:30:49;;;;;;;19.00;14.20;;;19.60;95.50;;;;;;5069598;28;20520;-89
2021/07/02 09:33:20;;;;;;;17.13;12.75;;;19.50;96.00;;;;;;5074739;28;20057;-88
2021/07/02 09:35:47;;;;;;;;;;;19.60;96.20;;;;;;5075197;28;20062;-89
2021/07/02 09:38:15;;;;;;;19.85;14.95;;;19.60;96.80;;;;;;5073280;28;19963;-89
2021/07/02 09:40:41;;;;;;;20.65;15.43;;;19.60;95.70;;;;;;5074598;28;20059;-88
2021/07/02 09:43:12;;;;;;;21.67;16.05;;;19.60;95.60;;;;;;5056466;22;20005;-81
2021/07/02 09:45:50;;;;;;;17.45;12.70;;;19.60;95.30;;;;;;5070370;28;20060;-82
2021/07/02 09:48:18;;;;;;;18.05;13.65;;;19.60;95.60;;;;;;5083796;28;20031;-82
2021/07/02 09:50:52;;;;;;;17.42;12.68;;;19.70;95.50;;;;;;5079893;28;20019;-82
2021/07/02 09:53:27;;;;;;;17.55;13.57;;;19.70;96.00;;;;;;5056904;28;20059;-88
2021/07/02 09:55:55;;;;;;;20.00;14.52;;;19.80;96.30;;;;;;5066752;28;20020;-88
2021/07/02 09:58:27;;;;;;;19.35;14.35;;;19.80;95.60;;;;;;5069823;28;20020;-87
2021/07/02 10:00:55;;;;;;;23.13;16.75;;;19.90;96.00;;;;;;5060060;28;20385;-88
2021/07/02 10:03:34;;;;;;;22.95;15.75;;;19.90;95.30;;;;;;5105898;28;20049;-88
2021/07/02 10:06:02;;;;;;;17.08;13.77;;;19.90;95.30;;;;;;5102863;28;20109;-88
2021/07/02 10:08:36;;;;;;;19.42;14.98;;;19.90;95.70;;;;;;5088433;28;20011;-88
2021/07/02 10:11:04;;;;;;;19.98;14.93;;;19.90;95.70;;;;;;5083699;28;20016;-87
2021/07/02 10:13:32;;;;;;;24.75;16.50;;;19.90;95.70;;;;;;5086175;28;20024;-88
2021/07/02 10:16:01;;;;;;;21.25;15.50;;;19.90;95.70;;;;;;5074068;28;20059;-87
2021/07/02 10:18:28;;;;;;;23.58;15.23;;;20.00;95.40;;;;;;5083294;28;20111;-87
2021/07/02 10:20:56;;;;;;;21.38;15.32;;;20.00;96.00;;;;;;5057976;28;20028;-88
2021/07/02 10:23:37;;;;;;;21.30;15.23;;;20.00;95.60;;;;;;5067407;28;20072;-88
2021/07/02 10:26:07;;;;;;;19.88;15.32;;;20.00;96.50;;;;;;5088768;28;20349;-88
2021/07/02 10:28:35;;;;;;;24.48;16.45;;;20.10;96.60;;;;;;5045296;28;20020;-88
2021/07/02 10:31:02;;;;;;;21.73;15.40;;;20.10;96.20;;;;;;5060033;28;20059;-88
2021/07/02 10:33:30;;;;;;;22.90;15.48;;;20.10;96.30;;;;;;5061102;28;20508;-88
2021/07/02 10:35:59;;;;;;;20.25;14.40;;;20.10;95.90;;;;;;5060418;28;20465;-88
2021/07/02 10:38:39;;;;;;;20.90;15.60;;;20.10;96.20;;;;;;5094215;28;20046;-88
2021/07/02 10:41:15;;;;;;;21.75;15.52;;;20.10;96.10;;;;;;5072636;28;20024;-88
2021/07/02 10:44:18;;;;;;;19.20;14.65;;;20.10;95.10;;;;;;5063969;28;20168;-88
2021/07/02 10:47:25;;;;;;;15.43;12.43;;;20.10;95.40;;;;;;5077948;28;20069;-88
2021/07/02 10:49:53;;;;;;;18.42;13.07;;;20.10;95.10;;;;;;4998840;28;20041;-87
2021/07/02 10:52:23;;;;;;;20.23;14.60;;;20.10;95.10;;;;;;5015716;28;20021;-87
2021/07/02 10:54:51;;;;;;;19.55;14.90;;;20.10;95.00;;;;;;5002795;28;20041;-86
2021/07/02 10:57:19;;;;;;;19.75;15.05;;;20.10;95.10;;;;;;5069541;28;20431;-87
2021/07/02 10:59:53;;;;;;;21.60;14.90;;;20.10;95.60;;;;;;5032274;28;20034;-87
2021/07/02 11:02:20;;;;;;;19.13;14.48;;;20.10;95.70;;;;;;5053837;28;20119;-87
2021/07/02 11:04:49;;;;;;;17.05;13.25;;;20.10;95.10;;;;;;5034494;28;20049;-86
2021/07/02 11:09:52;;;;;;;18.65;13.68;;;20.10;94.40;;;;;;5042481;28;20025;-87
2021/07/02 11:12:19;;;;;;;18.05;14.18;;;20.10;94.70;;;;;;5037065;28;20022;-87
2021/07/02 11:17:22;;;;;;;16.85;13.00;;;20.10;94.50;;;;;;5040594;28;20499;-86
2021/07/02 11:20:23;;;;;;;18.35;13.80;;;20.10;94.70;;;;;;5034983;28;20116;-86
2021/07/02 11:22:55;;;;;;;17.88;13.43;;;20.20;95.10;;;;;;5074226;28;20036;-87
2021/07/02 11:25:31;;;;;;;18.67;13.13;;;20.20;94.80;;;;;;5071812;28;20027;-86
2021/07/02 11:28:01;;;;;;;19.10;13.70;;;20.30;94.90;;;;;;5071578;28;20032;-86
2021/07/02 11:33:01;;;;;;;19.98;14.18;;;20.30;94.90;;;;;;5077260;28;20025;-86
2021/07/02 11:35:31;;;;;;;22.58;14.18;;;20.40;94.90;;;;;;5078673;28;20111;-86
2021/07/02 11:38:11;;;;;;;18.83;14.13;;;20.40;95.10;;;;;;5052558;28;20062;-87
2021/07/02 11:40:52;;;;;;;19.90;13.82;;;20.40;94.90;;;;;;5067308;28;20013;-86
2021/07/02 11:43:22;;;;;;;18.77;13.65;;;20.40;94.30;;;;;;5090957;28;20040;-87
2021/07/02 11:45:56;;;;;;;17.83;13.00;;;20.30;94.20;;;;;;5077254;28;20148;-87
2021/07/02 11:48:24;;;;;;;18.08;12.48;;;20.30;94.00;;;;;;5088636;28;20626;-88
2021/07/02 11:50:57;;;;;;;19.23;13.43;;;20.20;94.30;;;;;;5079253;28;20032;-90
2021/07/02 11:53:54;;;;;;;18.58;13.50;;;20.20;94.30;;;;;;5073278;28;20047;-88
2021/07/02 11:56:25;;;;;;;17.45;12.40;;;20.10;94.70;;;;;;5068428;28;20131;-88
2021/07/02 11:58:59;;;;;;;17.00;12.27;;;20.00;95.00;;;;;;5090305;28;20543;-88
2021/07/02 12:01:39;;;;;;;15.35;11.30;;;20.00;95.20;;;;;;5086611;28;20110;-89
2021/07/02 12:04:09;;;;;;;16.33;11.65;;;20.00;95.50;;;;;;5085783;28;20061;-88
2021/07/02 12:06:43;;;;;;;16.23;11.68;;;20.00;95.50;;;;;;5082950;28;20020;-88
2021/07/02 12:09:12;;;;;;;14.07;10.88;;;20.00;95.30;;;;;;5084262;28;20037;-88
2021/07/02 12:11:38;;;;;;;14.93;11.43;;;20.00;95.10;;;;;;5084514;28;20029;-88
2021/07/02 12:14:07;;;;;;;15.45;11.50;;;20.00;95.10;;;;;;5082794;28;20092;-88
2021/07/02 12:16:40;;;;;;;15.07;11.07;;;20.00;95.00;;;;;;5067801;28;20049;-87
2021/07/02 12:19:17;;;;;;;15.00;12.07;;;20.00;95.50;;;;;;5086775;28;20016;-87
2021/07/02 12:21:56;;;;;;;17.50;11.88;;;20.00;95.50;;;;;;5083590;28;20370;-87
2021/07/02 12:24:29;;;;;;;16.52;12.85;;;20.00;95.20;;;;;;5090540;28;20034;-87
2021/07/02 12:27:05;;;;;;;17.02;12.70;;;20.00;95.30;;;;;;5074818;28;20051;-87
2021/07/02 12:29:32;;;;;;;21.60;14.30;;;20.00;95.10;;;;;;5077137;28;20043;-87
2021/07/02 12:32:03;;;;;;;15.15;11.82;;;20.10;95.30;;;;;;5071607;28;20036;-87
2021/07/02 12:34:35;;;;;;;16.20;12.32;;;20.10;95.70;;;;;;5094612;28;20035;-87
2021/07/02 12:37:02;;;;;;;14.35;11.80;;;20.20;95.40;;;;;;5080178;28;20016;-87
2021/07/02 12:39:48;;;;;;;16.08;12.30;;;20.20;95.10;;;;;;5071632;28;20070;-87
2021/07/02 12:42:34;;;;;;;17.77;12.75;;;20.30;95.20;;;;;;5085866;28;20131;-87
2021/07/02 12:45:03;;;;;;;17.00;13.02;;;20.30;95.00;;;;;;5042492;28;20082;-88
2021/07/02 12:47:34;;;;;;;14.68;11.95;;;20.30;95.00;;;;;;5075810;28;20036;-88